createdAt,value
2019-05-25T00:00:10.314Z,93.94
2019-05-25T00:02:39.827Z,93.19
2019-05-25T00:05:09.154Z,93.66
2019-05-25T00:07:38.609Z,93.34
2019-05-25T00:10:08.351Z,93.43
2019-05-25T00:12:37.635Z,93.36
2019-05-25T00:15:07.688Z,93.79
2019-05-25T00:17:37.173Z,93.66
2019-05-25T00:20:06.649Z,93.79
2019-05-25T00:22:38.246Z,93.50
2019-05-25T00:25:07.594Z,93.75
2019-05-25T00:27:36.902Z,93.94
2019-05-25T00:30:06.556Z,93.83
2019-05-25T00:32:35.875Z,94.34
2019-05-25T00:35:05.255Z,94.56
2019-05-25T00:37:34.939Z,94.66
2019-05-25T00:40:04.663Z,95.07
2019-05-25T00:42:33.983Z,94.92
2019-05-25T00:45:03.707Z,95.13
2019-05-25T00:47:33.041Z,95.28
2019-05-25T00:50:02.326Z,95.68
2019-05-25T00:52:31.993Z,95.73
2019-05-25T00:55:01.376Z,95.79
2019-05-25T00:57:30.707Z,95.95
2019-05-25T01:00:00.244Z,95.86
2019-05-25T01:02:29.609Z,95.80
2019-05-25T01:04:59.080Z,95.84
2019-05-25T01:07:29.028Z,95.78
2019-05-25T01:09:58.392Z,95.69
2019-05-25T01:12:27.715Z,95.54
2019-05-25T01:14:57.560Z,95.58
2019-05-25T01:17:26.875Z,95.79
2019-05-25T01:19:56.241Z,95.82
2019-05-25T01:22:26.295Z,95.87
2019-05-25T01:24:55.677Z,95.85
2019-05-25T01:27:25.045Z,95.79
2019-05-25T01:29:54.902Z,95.84
2019-05-25T01:32:24.194Z,95.54
2019-05-25T01:34:53.654Z,95.67
2019-05-25T01:37:23.559Z,95.67
2019-05-25T01:39:52.846Z,95.50
2019-05-25T01:42:22.157Z,95.38
2019-05-25T01:44:51.707Z,95.24
2019-05-25T01:47:21.024Z,95.21
2019-05-25T01:49:50.282Z,95.02
2019-05-25T01:52:20.229Z,94.77
2019-05-25T01:54:59.608Z,94.40
2019-05-25T01:57:20.516Z,94.43
2019-05-25T01:59:50.037Z,93.90
2019-05-25T02:02:19.372Z,93.97
2019-05-25T02:04:48.659Z,93.78
2019-05-25T02:07:18.097Z,93.25
2019-05-25T02:09:47.400Z,93.27
2019-05-25T02:12:16.714Z,93.18
2019-05-25T02:14:46.232Z,92.90
2019-05-25T02:17:15.537Z,93.41
2019-05-25T02:19:44.857Z,93.28
2019-05-25T02:22:15.002Z,93.16
2019-05-25T02:24:44.320Z,93.24
2019-05-25T02:27:13.645Z,93.22
2019-05-25T02:29:43.783Z,92.69
2019-05-25T02:32:13.105Z,91.66
2019-05-25T02:34:45.723Z,91.25
2019-05-25T02:37:15.214Z,92.42
2019-05-25T02:39:44.521Z,92.75
2019-05-25T02:42:13.908Z,92.79
2019-05-25T02:44:43.292Z,92.75
2019-05-25T02:47:12.625Z,93.02
2019-05-25T02:49:42.407Z,93.55
2019-05-25T02:52:11.877Z,93.39
2019-05-25T02:54:41.186Z,92.98
2019-05-25T02:57:10.748Z,92.98
2019-05-25T02:59:40.145Z,93.14
2019-05-25T03:02:09.500Z,92.93
2019-05-25T03:04:39.374Z,92.42
2019-05-25T03:07:09.630Z,92.37
2019-05-25T03:09:41.093Z,92.19
2019-05-25T03:12:10.587Z,92.73
2019-05-25T03:14:40.023Z,92.24
2019-05-25T03:17:09.814Z,92.45
2019-05-25T03:19:39.518Z,92.45
2019-05-25T03:22:08.976Z,92.20
2019-05-25T03:24:38.463Z,92.11
2019-05-25T03:27:07.757Z,91.76
2019-05-25T03:29:37.658Z,92.10
2019-05-25T03:32:07.061Z,91.62
2019-05-25T03:34:36.387Z,91.28
2019-05-25T03:37:06.825Z,90.79
2019-05-25T03:39:36.690Z,90.35
2019-05-25T03:42:06.233Z,90.15
2019-05-25T03:44:35.763Z,90.21
2019-05-25T03:47:05.132Z,88.97
2019-05-25T03:49:34.428Z,89.02
2019-05-25T03:52:04.110Z,88.23
2019-05-25T03:54:33.437Z,88.48
2019-05-25T03:57:02.985Z,87.59
2019-05-25T03:59:32.945Z,86.34
2019-05-25T04:02:02.229Z,85.30
2019-05-25T04:04:31.537Z,84.74
2019-05-25T04:07:01.602Z,85.99
2019-05-25T04:09:30.862Z,86.18
2019-05-25T04:12:00.143Z,86.62
2019-05-25T04:14:29.801Z,86.42
2019-05-25T04:16:59.101Z,85.54
2019-05-25T04:19:28.403Z,84.87
2019-05-25T04:21:58.402Z,83.90
2019-05-25T04:24:27.771Z,83.60
2019-05-25T04:26:57.060Z,82.98
2019-05-25T04:29:26.897Z,82.81
2019-05-25T04:31:56.183Z,82.09
2019-05-25T04:34:25.456Z,81.83
2019-05-25T04:36:55.038Z,81.94
2019-05-25T04:39:24.347Z,80.90
2019-05-25T04:41:53.641Z,78.85
2019-05-25T04:44:23.729Z,76.87
2019-05-25T04:46:53.032Z,75.60
2019-05-25T04:49:22.485Z,75.24
2019-05-25T04:51:52.273Z,72.80
2019-05-25T04:54:21.601Z,73.64
2019-05-25T04:56:50.924Z,70.31
2019-05-25T04:59:20.749Z,70.47
2019-05-25T05:01:50.050Z,70.72
2019-05-25T05:04:19.390Z,71.85
2019-05-25T05:06:48.969Z,71.07
2019-05-25T05:09:18.265Z,70.95
2019-05-25T05:11:47.562Z,69.72
2019-05-25T05:14:17.188Z,69.46
2019-05-25T05:16:46.891Z,64.57
2019-05-25T05:19:16.207Z,59.17
2019-05-25T05:21:46.226Z,55.67
2019-05-25T05:24:15.494Z,52.85
2019-05-25T05:26:55.433Z,49.48
2019-05-25T05:29:15.996Z,48.02
2019-05-25T05:31:45.286Z,45.74
2019-05-25T05:34:14.662Z,44.48
2019-05-25T05:36:45.181Z,42.70
2019-05-25T05:39:14.764Z,41.86
2019-05-25T05:41:45.614Z,43.75
2019-05-25T05:44:18.024Z,42.17
2019-05-25T05:46:49.375Z,40.56
2019-05-25T05:49:20.138Z,43.17
2019-05-25T05:51:50.861Z,44.55
2019-05-25T05:54:21.231Z,48.11
2019-05-25T05:56:50.823Z,51.72
2019-05-25T05:59:20.344Z,53.99
2019-05-25T06:01:49.982Z,55.20
2019-05-25T06:04:19.314Z,56.64
2019-05-25T06:06:48.859Z,57.29
2019-05-25T06:09:18.730Z,57.49
2019-05-25T06:11:48.047Z,58.28
2019-05-25T06:14:17.357Z,59.35
2019-05-25T06:16:47.224Z,59.33
2019-05-25T06:19:16.563Z,60.84
2019-05-25T06:21:46.226Z,61.46
2019-05-25T06:24:16.189Z,62.82
2019-05-25T06:26:45.494Z,65.06
2019-05-25T06:29:14.888Z,62.96
2019-05-25T06:31:44.280Z,63.36
2019-05-25T06:34:13.610Z,63.18
2019-05-25T06:36:43.154Z,64.28
2019-05-25T06:39:15.062Z,65.64
2019-05-25T06:41:44.532Z,66.31
2019-05-25T06:44:14.304Z,66.58
2019-05-25T06:46:45.009Z,64.93
2019-05-25T06:49:14.305Z,65.66
2019-05-25T06:51:43.688Z,66.15
2019-05-25T06:54:13.498Z,67.33
2019-05-25T06:56:42.825Z,66.60
2019-05-25T06:59:12.186Z,67.40
2019-05-25T07:01:41.935Z,65.74
2019-05-25T07:04:11.229Z,65.45
2019-05-25T07:06:40.625Z,61.31
2019-05-25T07:09:10.474Z,55.97
2019-05-25T07:11:39.776Z,49.04
2019-05-25T07:14:09.226Z,43.35
2019-05-25T07:16:38.878Z,41.67
2019-05-25T07:19:08.163Z,40.82
2019-05-25T07:21:37.664Z,40.98
2019-05-25T07:24:07.503Z,39.64
2019-05-25T07:26:36.860Z,40.08
2019-05-25T07:29:06.349Z,41.77
2019-05-25T07:31:35.753Z,41.39
2019-05-25T07:34:05.184Z,42.89
2019-05-25T07:36:34.597Z,40.49
2019-05-25T07:39:05.284Z,39.31
2019-05-25T07:41:34.604Z,38.21
2019-05-25T07:44:04.271Z,37.20
2019-05-25T07:46:33.774Z,35.76
2019-05-25T07:49:03.177Z,34.06
2019-05-25T07:51:32.663Z,36.63
2019-05-25T07:54:02.049Z,34.88
2019-05-25T07:56:31.323Z,34.24
2019-05-25T07:59:00.796Z,33.56
2019-05-25T08:01:30.664Z,33.91
2019-05-25T08:03:59.948Z,33.69
2019-05-25T08:06:29.440Z,32.90
2019-05-25T08:08:58.808Z,34.86
2019-05-25T08:11:28.172Z,37.02
2019-05-25T08:13:57.659Z,36.72
2019-05-25T08:16:27.391Z,40.06
2019-05-25T08:18:56.662Z,39.63
2019-05-25T08:21:26.037Z,39.37
2019-05-25T08:23:55.404Z,41.28
2019-05-25T08:26:24.729Z,43.93
2019-05-25T08:28:54.208Z,46.68
2019-05-25T08:31:23.669Z,48.30
2019-05-25T08:33:53.013Z,49.07
2019-05-25T08:36:22.412Z,49.98
2019-05-25T08:38:54.785Z,52.53
2019-05-25T08:41:23.252Z,54.90
2019-05-25T08:43:52.566Z,54.89
2019-05-25T08:46:22.225Z,55.71
2019-05-25T08:48:51.541Z,56.16
2019-05-25T08:51:21.033Z,54.04
2019-05-25T08:53:53.162Z,52.18
2019-05-25T08:56:22.491Z,47.04
2019-05-25T08:58:55.372Z,47.13
2019-05-25T09:01:23.532Z,47.23
2019-05-25T09:03:52.830Z,45.12
2019-05-25T09:06:22.624Z,44.57
2019-05-25T09:08:52.063Z,48.03
2019-05-25T09:11:21.388Z,49.86
2019-05-25T09:13:50.817Z,51.60
2019-05-25T09:16:20.303Z,50.97
2019-05-25T09:18:49.585Z,48.33
2019-05-25T09:21:19.331Z,46.10
2019-05-25T09:23:49.223Z,47.44
2019-05-25T09:26:18.562Z,48.90
2019-05-25T09:29:01.643Z,47.48
2019-05-25T09:31:19.099Z,50.64
2019-05-25T09:33:48.381Z,53.01
2019-05-25T09:36:17.736Z,52.78
2019-05-25T09:38:47.946Z,53.46
2019-05-25T09:41:17.296Z,53.49
2019-05-25T09:43:47.011Z,53.49
2019-05-25T09:46:16.353Z,54.90
2019-05-25T09:48:45.673Z,54.92
2019-05-25T09:51:15.777Z,53.03
2019-05-25T09:53:45.309Z,53.32
2019-05-25T09:56:14.690Z,53.91
2019-05-25T09:58:43.986Z,57.09
2019-05-25T10:01:13.406Z,54.74
2019-05-25T10:03:42.728Z,57.91
2019-05-25T10:06:13.361Z,55.53
2019-05-25T10:08:42.844Z,56.90
2019-05-25T10:11:12.185Z,55.43
2019-05-25T10:13:41.711Z,55.25
2019-05-25T10:16:11.043Z,53.12
2019-05-25T10:18:40.400Z,53.90
2019-05-25T10:21:09.859Z,54.72
2019-05-25T10:23:39.250Z,53.57
2019-05-25T10:26:08.573Z,53.15
2019-05-25T10:28:37.971Z,54.16
2019-05-25T10:31:07.260Z,55.38
2019-05-25T10:33:36.611Z,52.31
2019-05-25T10:36:07.119Z,54.33
2019-05-25T10:38:37.460Z,56.29
2019-05-25T10:41:07.354Z,55.53
2019-05-25T10:43:36.842Z,55.03
2019-05-25T10:46:06.519Z,56.25
2019-05-25T10:48:36.644Z,56.64
2019-05-25T10:51:06.201Z,55.70
2019-05-25T10:53:35.810Z,56.90
2019-05-25T10:56:05.357Z,55.72
2019-05-25T10:58:35.051Z,56.93
2019-05-25T11:01:04.531Z,55.75
2019-05-25T11:03:33.787Z,55.50
2019-05-25T11:06:03.391Z,54.42
2019-05-25T11:08:32.942Z,51.19
2019-05-25T11:11:02.281Z,50.76
2019-05-25T11:13:31.671Z,49.56
2019-05-25T11:16:01.037Z,50.23
2019-05-25T11:18:30.316Z,50.95
2019-05-25T11:20:59.719Z,49.96
2019-05-25T11:23:29.652Z,51.29
2019-05-25T11:25:58.949Z,52.81
2019-05-25T11:28:28.309Z,51.64
2019-05-25T11:30:57.752Z,50.57
2019-05-25T11:33:27.075Z,51.84
2019-05-25T11:35:56.623Z,51.70
2019-05-25T11:38:26.105Z,49.92
2019-05-25T11:40:55.435Z,48.74
2019-05-25T11:43:25.326Z,49.08
2019-05-25T11:45:54.911Z,48.26
2019-05-25T11:48:24.337Z,47.57
2019-05-25T11:50:53.849Z,49.16
2019-05-25T11:53:23.412Z,50.48
2019-05-25T11:55:52.717Z,52.26
2019-05-25T11:58:22.271Z,52.83
2019-05-25T12:00:51.857Z,51.14
2019-05-25T12:03:21.139Z,50.84
2019-05-25T12:05:50.650Z,50.85
2019-05-25T12:08:20.049Z,50.69
2019-05-25T12:10:49.353Z,51.71
2019-05-25T12:13:19.128Z,50.06
2019-05-25T12:15:48.598Z,50.92
2019-05-25T12:18:17.890Z,50.95
2019-05-25T12:20:47.231Z,51.65
2019-05-25T12:23:19.158Z,51.80
2019-05-25T12:25:48.553Z,50.48
2019-05-25T12:28:17.950Z,49.98
2019-05-25T12:30:47.243Z,50.83
2019-05-25T12:33:16.513Z,50.03
2019-05-25T12:35:45.850Z,49.10
2019-05-25T12:38:15.808Z,51.96
2019-05-25T12:40:53.224Z,52.53
2019-05-25T12:43:17.013Z,51.47
2019-05-25T12:45:46.486Z,51.46
2019-05-25T12:48:15.813Z,50.84
2019-05-25T12:50:45.318Z,51.85
2019-05-25T12:53:14.604Z,53.00
2019-05-25T12:55:43.929Z,52.69
2019-05-25T12:58:13.486Z,53.40
2019-05-25T13:00:55.232Z,51.41
2019-05-25T13:03:14.009Z,51.91
2019-05-25T13:05:43.396Z,51.27
2019-05-25T13:08:12.690Z,52.00
2019-05-25T13:10:42.081Z,51.85
2019-05-25T13:13:11.538Z,53.28
2019-05-25T13:15:40.829Z,52.04
2019-05-25T13:18:10.183Z,53.72
2019-05-25T13:20:39.531Z,51.20
2019-05-25T13:23:08.859Z,52.04
2019-05-25T13:25:38.314Z,51.93
2019-05-25T13:28:07.806Z,50.99
2019-05-25T13:30:37.106Z,53.73
2019-05-25T13:33:06.530Z,53.79
2019-05-25T13:35:35.976Z,53.41
2019-05-25T13:38:05.320Z,54.42
2019-05-25T13:40:34.783Z,55.09
2019-05-25T13:43:04.313Z,53.86
2019-05-25T13:45:33.607Z,52.31
2019-05-25T13:48:03.685Z,51.35
2019-05-25T13:50:33.243Z,53.87
2019-05-25T13:53:02.534Z,51.41
2019-05-25T13:55:31.910Z,52.50
2019-05-25T13:58:01.245Z,53.50
2019-05-25T14:00:30.544Z,53.44
2019-05-25T14:03:00.429Z,56.55
2019-05-25T14:05:29.729Z,56.55
2019-05-25T14:07:59.055Z,55.93
2019-05-25T14:10:28.683Z,55.32
2019-05-25T14:12:58.094Z,53.96
2019-05-25T14:15:27.418Z,55.17
2019-05-25T14:17:57.312Z,53.68
2019-05-25T14:20:26.897Z,52.77
2019-05-25T14:22:56.248Z,54.13
2019-05-25T14:25:26.126Z,54.44
2019-05-25T14:27:55.598Z,52.15
2019-05-25T14:30:24.996Z,52.55
2019-05-25T14:32:54.399Z,55.59
2019-05-25T14:35:24.115Z,55.22
2019-05-25T14:37:53.518Z,53.72
2019-05-25T14:40:23.382Z,55.58
2019-05-25T14:42:52.727Z,53.69
2019-05-25T14:45:22.029Z,55.13
2019-05-25T14:47:51.513Z,55.40
2019-05-25T14:50:20.854Z,55.06
2019-05-25T14:52:50.447Z,53.47
2019-05-25T14:55:20.120Z,55.09
2019-05-25T14:57:49.505Z,54.14
2019-05-25T15:00:19.220Z,54.24
2019-05-25T15:02:49.027Z,54.59
2019-05-25T15:05:18.424Z,54.59
2019-05-25T15:07:47.712Z,53.84
2019-05-25T15:10:17.531Z,53.85
2019-05-25T15:12:46.894Z,54.59
2019-05-25T15:15:16.502Z,51.72
2019-05-25T15:17:45.919Z,50.84
2019-05-25T15:20:15.826Z,52.96
2019-05-25T15:22:47.005Z,54.34
2019-05-25T15:25:16.876Z,54.45
2019-05-25T15:27:46.284Z,55.04
2019-05-25T15:30:15.994Z,54.14
2019-05-25T15:32:45.428Z,53.83
2019-05-25T15:35:15.077Z,55.05
2019-05-25T15:37:44.414Z,55.36
2019-05-25T15:40:15.086Z,53.14
2019-05-25T15:42:44.398Z,53.97
2019-05-25T15:45:14.029Z,54.73
2019-05-25T15:47:43.490Z,54.73
2019-05-25T15:50:14.508Z,53.56
2019-05-25T15:52:44.021Z,51.85
2019-05-25T15:55:13.512Z,51.85
2019-05-25T15:57:42.858Z,52.48
2019-05-25T16:00:13.542Z,52.48
2019-05-25T16:02:42.954Z,53.08
2019-05-25T16:05:14.887Z,53.53
2019-05-25T16:07:47.513Z,55.51
2019-05-25T16:10:17.074Z,55.51
2019-05-25T16:12:46.579Z,58.63
2019-05-25T16:15:20.257Z,55.96
2019-05-25T16:17:49.654Z,53.86
2019-05-25T16:20:22.840Z,54.16
2019-05-25T16:22:52.343Z,54.37
2019-05-25T16:25:21.647Z,54.43
2019-05-25T16:27:51.134Z,54.83
2019-05-25T16:30:20.651Z,55.04
2019-05-25T16:35:21.578Z,54.84
2019-05-25T16:37:51.143Z,55.76
2019-05-25T16:40:20.734Z,57.26
2019-05-25T16:42:50.224Z,56.55
2019-05-25T16:45:19.641Z,57.07
2019-05-25T16:47:48.925Z,59.12
2019-05-25T16:50:18.569Z,58.40
2019-05-25T16:52:48.177Z,57.94
2019-05-25T16:55:17.696Z,56.36
2019-05-25T16:57:47.308Z,56.36
2019-05-25T17:00:21.262Z,56.28
2019-05-25T17:02:50.772Z,56.65
2019-05-25T17:05:20.092Z,56.72
2019-05-25T17:07:49.487Z,57.22
2019-05-25T17:10:18.916Z,57.53
2019-05-25T17:12:48.186Z,58.35
2019-05-25T17:15:17.796Z,59.44
2019-05-25T17:17:47.597Z,57.78
2019-05-25T17:20:17.434Z,57.51
2019-05-25T17:22:46.783Z,58.25
2019-05-25T17:25:16.438Z,59.66
2019-05-25T17:27:45.797Z,59.71
2019-05-25T17:30:15.826Z,60.37
2019-05-25T17:32:45.251Z,60.20
2019-05-25T17:35:15.281Z,61.25
2019-05-25T17:37:44.725Z,62.62
2019-05-25T17:40:14.146Z,61.64
2019-05-25T17:42:43.510Z,61.48
2019-05-25T17:45:13.128Z,61.71
2019-05-25T17:47:42.550Z,60.21
2019-05-25T17:50:11.968Z,60.18
2019-05-25T17:52:41.296Z,60.54
2019-05-25T17:55:10.808Z,61.99
2019-05-25T17:57:40.137Z,63.37
2019-05-25T18:00:10.622Z,64.13
2019-05-25T18:02:40.161Z,64.51
2019-05-25T18:05:10.127Z,64.75
2019-05-25T18:07:39.508Z,65.94
2019-05-25T18:10:09.712Z,65.83
2019-05-25T18:12:39.074Z,65.77
2019-05-25T18:15:08.881Z,64.48
2019-05-25T18:17:38.423Z,65.09
2019-05-25T18:20:07.805Z,64.70
2019-05-25T18:22:37.221Z,65.36
2019-05-25T18:25:06.926Z,64.92
2019-05-25T18:27:36.240Z,65.70
2019-05-25T18:30:06.976Z,65.08
2019-05-25T18:32:36.488Z,65.10
2019-05-25T18:35:05.945Z,65.36
2019-05-25T18:37:35.335Z,65.87
2019-05-25T18:40:05.057Z,66.11
2019-05-25T18:42:34.374Z,66.44
2019-05-25T18:45:03.752Z,67.53
2019-05-25T18:47:33.248Z,69.03
2019-05-25T18:50:02.550Z,69.09
2019-05-25T18:52:31.937Z,71.00
2019-05-25T18:55:01.409Z,71.12
2019-05-25T18:57:30.746Z,72.15
2019-05-25T19:00:00.145Z,71.53
2019-05-25T19:02:29.584Z,72.93
2019-05-25T19:05:00.038Z,72.63
2019-05-25T19:07:29.627Z,74.09
2019-05-25T19:09:59.084Z,74.88
2019-05-25T19:12:28.409Z,74.22
2019-05-25T19:14:57.894Z,74.97
2019-05-25T19:17:27.285Z,76.32
2019-05-25T19:19:56.583Z,76.63
2019-05-25T19:22:26.177Z,76.89
2019-05-25T19:24:55.564Z,76.40
2019-05-25T19:27:24.883Z,77.24
2019-05-25T19:29:54.295Z,76.92
2019-05-25T19:32:23.760Z,77.17
2019-05-25T19:34:59.467Z,77.67
2019-05-25T19:37:24.616Z,77.86
2019-05-25T19:39:54.289Z,78.46
2019-05-25T19:42:23.587Z,77.80
2019-05-25T19:44:53.124Z,78.37
2019-05-25T19:47:22.858Z,78.96
2019-05-25T19:49:52.288Z,79.75
2019-05-25T19:52:21.727Z,80.44
2019-05-25T19:54:51.200Z,80.93
2019-05-25T19:57:20.549Z,80.32
2019-05-25T19:59:49.963Z,80.56
2019-05-25T20:02:19.365Z,77.97
2019-05-25T20:04:48.670Z,78.66
2019-05-25T20:07:18.057Z,78.80
2019-05-25T20:09:47.444Z,78.99
2019-05-25T20:12:16.769Z,78.68
2019-05-25T20:14:46.309Z,78.59
2019-05-25T20:17:15.707Z,79.34
2019-05-25T20:19:45.060Z,79.26
2019-05-25T20:22:14.547Z,79.61
2019-05-25T20:24:44.028Z,79.37
2019-05-25T20:27:13.330Z,79.57
2019-05-25T20:29:42.798Z,80.29
2019-05-25T20:32:12.705Z,81.36
2019-05-25T20:34:45.559Z,82.10
2019-05-25T20:37:13.409Z,82.05
2019-05-25T20:39:42.718Z,82.91
2019-05-25T20:42:15.016Z,80.55
2019-05-25T20:44:43.284Z,80.88
2019-05-25T20:47:13.095Z,80.97
2019-05-25T20:49:42.389Z,80.16
2019-05-25T20:52:13.675Z,80.14
2019-05-25T20:54:42.989Z,79.71
2019-05-25T20:57:12.242Z,80.11
2019-05-25T20:59:42.323Z,79.70
2019-05-25T21:02:11.651Z,80.43
2019-05-25T21:04:40.989Z,80.40
2019-05-25T21:07:10.761Z,79.26
2019-05-25T21:09:40.093Z,79.37
2019-05-25T21:12:09.368Z,77.46
2019-05-25T21:14:38.903Z,77.69
2019-05-25T21:17:08.285Z,77.47
2019-05-25T21:19:37.550Z,77.55
2019-05-25T21:22:07.433Z,77.25
2019-05-25T21:24:36.723Z,77.24
2019-05-25T21:27:06.041Z,77.56
2019-05-25T21:29:36.089Z,77.15
2019-05-25T21:32:05.514Z,77.13
2019-05-25T21:34:34.762Z,78.22
2019-05-25T21:37:04.340Z,77.57
2019-05-25T21:39:33.628Z,77.72
2019-05-25T21:42:02.978Z,77.00
2019-05-25T21:44:32.766Z,76.77
2019-05-25T21:47:02.110Z,77.07
2019-05-25T21:49:31.618Z,76.79
2019-05-25T21:52:01.222Z,76.85
2019-05-25T21:54:30.517Z,76.81
2019-05-25T21:56:59.887Z,78.26
2019-05-25T21:59:32.578Z,78.17
2019-05-25T22:02:00.706Z,77.92
2019-05-25T22:04:30.379Z,77.65
2019-05-25T22:06:59.922Z,78.22
2019-05-25T22:09:29.220Z,77.64
2019-05-25T22:11:59.269Z,77.69
2019-05-25T22:14:28.892Z,78.17
2019-05-25T22:16:58.232Z,78.23
2019-05-25T22:19:28.059Z,78.40
2019-05-25T22:21:57.450Z,78.08
2019-05-25T22:24:26.754Z,77.21
2019-05-25T22:26:56.183Z,77.12
2019-05-25T22:29:25.677Z,77.45
2019-05-25T22:31:55.067Z,76.99
2019-05-25T22:34:24.373Z,76.85
2019-05-25T22:36:53.879Z,77.34
2019-05-25T22:39:23.231Z,77.54
2019-05-25T22:41:52.758Z,77.69
2019-05-25T22:44:22.069Z,77.52
2019-05-25T22:46:51.477Z,77.86
2019-05-25T22:49:20.961Z,77.19
2019-05-25T22:51:50.381Z,76.94
2019-05-25T22:54:19.770Z,77.20
2019-05-25T22:56:49.980Z,76.03
2019-05-25T22:59:19.522Z,75.88
2019-05-25T23:01:48.795Z,77.11
2019-05-25T23:04:18.972Z,77.14
2019-05-25T23:06:58.019Z,76.28
2019-05-25T23:09:19.430Z,76.29
2019-05-25T23:11:48.888Z,75.60
2019-05-25T23:14:18.454Z,76.44
2019-05-25T23:16:47.763Z,75.82
2019-05-25T23:19:17.260Z,76.56
2019-05-25T23:21:46.780Z,75.42
2019-05-25T23:24:16.027Z,75.84
2019-05-25T23:26:45.454Z,76.81
2019-05-25T23:29:14.828Z,74.89
2019-05-25T23:31:44.161Z,74.49
2019-05-25T23:34:13.665Z,74.80
2019-05-25T23:36:42.975Z,75.04
2019-05-25T23:39:12.316Z,74.61
2019-05-25T23:41:41.850Z,75.74
2019-05-25T23:44:11.265Z,73.57
2019-05-25T23:46:40.667Z,74.69
2019-05-25T23:49:10.657Z,74.41
2019-05-25T23:51:39.993Z,73.65
2019-05-25T23:54:09.303Z,73.49
2019-05-25T23:56:38.720Z,74.28
2019-05-25T23:59:08.026Z,73.92
